Time;durP1;ratioP1;P1;durP2;ratioP2;P2;SDS_P1;SDS_P2;PMS_P1;PMS_P2;Temp;Humidity;BMP_temperature;BMP_pressure;BME280_temperature;BME280_humidity;BME280_pressure;Samples;Min_cycle;Max_cycle;Signal;HPM_P1;HPM_P2
2021/12/16 00:03:00;;;;;;;61.35;22.45;;;6.90;99.90;;;;;;4972885;28;20050;-75
2021/12/16 00:06:01;;;;;;;56.63;22.65;;;6.90;99.90;;;;;;4954506;28;20055;-76
2021/12/16 00:10:58;;;;;;;65.43;23.52;;;7.10;99.90;;;;;;4971708;28;20058;-79
2021/12/16 00:30:09;;;;;;;64.65;25.08;;;7.50;99.90;;;;;;4935912;29;20444;-75
2021/12/16 00:35:01;;;;;;;58.95;22.20;;;7.60;99.90;;;;;;4972017;28;20050;-75
2021/12/16 00:37:27;;;;;;;61.25;24.10;;;7.60;99.90;;;;;;4953980;28;20520;-75
2021/12/16 00:39:53;;;;;;;50.55;22.70;;;7.60;99.90;;;;;;4955288;28;20053;-80
2021/12/16 00:47:32;;;;;;;49.17;21.75;;;7.60;99.90;;;;;;4971481;28;20514;-75
2021/12/16 00:50:17;;;;;;;61.63;22.85;;;7.60;99.90;;;;;;4938994;28;20042;-77
2021/12/16 00:55:51;;;;;;;54.22;22.17;;;7.60;99.90;;;;;;4972108;28;20066;-75
2021/12/16 00:58:17;;;;;;;54.20;20.40;;;7.60;99.90;;;;;;4971637;28;20062;-75
2021/12/16 01:00:51;;;;;;;56.35;23.58;;;7.60;99.90;;;;;;4955202;28;20054;-76
2021/12/16 01:03:26;;;;;;;62.47;26.08;;;7.60;99.90;;;;;;4937917;28;20766;-78
2021/12/16 01:06:12;;;;;;;61.08;23.40;;;7.70;99.90;;;;;;4955009;28;20059;-78
2021/12/16 01:51:50;;;;;;;57.53;25.75;;;7.40;99.90;;;;;;4950580;29;20095;-76
2021/12/16 01:54:40;;;;;;;59.47;25.25;;;7.40;99.90;;;;;;4953081;28;20535;-75
2021/12/16 01:57:22;;;;;;;64.32;25.92;;;7.40;99.90;;;;;;4952720;28;20382;-75
2021/12/16 01:59:58;;;;;;;66.03;25.35;;;7.30;99.90;;;;;;4946464;29;20481;-77
2021/12/16 02:02:40;;;;;;;70.43;27.52;;;7.40;99.90;;;;;;4953192;28;20051;-75
2021/12/16 02:10:34;;;;;;;66.47;27.05;;;7.30;99.90;;;;;;4933465;29;20138;-76
2021/12/16 02:37:23;;;;;;;72.13;28.30;;;7.30;99.90;;;;;;4889918;29;20479;-75
2021/12/16 02:39:50;;;;;;;70.57;27.45;;;7.40;99.90;;;;;;4926687;29;20150;-75
2021/12/16 02:42:21;;;;;;;76.47;29.02;;;7.40;99.90;;;;;;4950467;29;20114;-75
2021/12/16 02:50:25;;;;;;;67.50;26.70;;;7.40;99.90;;;;;;4964305;28;20110;-77
2021/12/16 02:52:52;;;;;;;75.85;27.08;;;7.40;99.90;;;;;;4969217;28;20100;-75
2021/12/16 02:55:21;;;;;;;71.60;27.17;;;7.40;99.90;;;;;;4952510;28;20209;-77
2021/12/16 02:58:01;;;;;;;83.15;28.55;;;7.40;99.90;;;;;;4970431;28;20073;-76
2021/12/16 03:00:30;;;;;;;70.03;25.95;;;7.30;99.90;;;;;;4970443;28;20145;-75
2021/12/16 03:02:55;;;;;;;67.20;26.80;;;7.30;99.90;;;;;;4936977;28;20553;-76
2021/12/16 03:05:22;;;;;;;69.40;25.88;;;7.30;99.90;;;;;;4969826;28;20190;-77
2021/12/16 03:07:49;;;;;;;72.57;27.13;;;7.30;99.90;;;;;;4968650;28;20069;-76
2021/12/16 03:13:03;;;;;;;70.93;26.30;;;7.30;99.90;;;;;;4970223;28;20412;-76
2021/12/16 03:15:55;;;;;;;72.47;28.08;;;7.30;99.90;;;;;;4940217;29;20204;-75
2021/12/16 03:18:45;;;;;;;78.38;28.50;;;7.30;99.90;;;;;;4950453;29;20058;-75
2021/12/16 03:21:29;;;;;;;71.40;26.42;;;7.30;99.90;;;;;;4932305;29;20055;-75
2021/12/16 03:24:23;;;;;;;73.43;28.45;;;7.40;99.90;;;;;;4950947;29;20105;-74
2021/12/16 03:32:54;;;;;;;70.93;25.52;;;7.40;99.90;;;;;;4894905;29;20071;-75
2021/12/16 03:35:31;;;;;;;78.30;28.65;;;7.40;99.90;;;;;;4894236;29;20164;-75
2021/12/16 03:38:05;;;;;;;79.07;28.35;;;7.40;99.90;;;;;;4930834;28;20078;-75
2021/12/16 03:40:32;;;;;;;70.88;27.30;;;7.40;99.90;;;;;;4939202;28;20055;-77
2021/12/16 03:43:15;;;;;;;73.93;26.77;;;7.40;99.90;;;;;;4940135;28;20073;-77
2021/12/16 03:48:58;;;;;;;62.73;23.63;;;7.40;99.90;;;;;;4967721;28;20125;-75
2021/12/16 03:51:53;;;;;;;78.07;29.45;;;7.40;99.90;;;;;;4935872;29;20051;-75
2021/12/16 03:54:30;;;;;;;77.63;29.00;;;7.40;99.90;;;;;;4950759;29;20063;-74
2021/12/16 03:56:58;;;;;;;77.80;28.60;;;7.40;99.90;;;;;;4972733;28;20053;-76
2021/12/16 03:59:26;;;;;;;79.55;28.70;;;7.40;99.90;;;;;;4973137;28;20113;-76
2021/12/16 04:01:54;;;;;;;75.57;30.17;;;7.40;99.90;;;;;;4973238;28;20338;-75
2021/12/16 04:04:19;;;;;;;61.47;23.98;;;7.40;99.90;;;;;;4956099;28;20046;-76
2021/12/16 04:06:46;;;;;;;75.35;26.50;;;7.40;99.90;;;;;;4951416;29;20057;-75
2021/12/16 04:09:12;;;;;;;;;;;7.40;99.90;;;;;;4936919;29;20095;-75
2021/12/16 04:11:44;;;;;;;63.58;25.52;;;7.40;99.90;;;;;;4953519;29;19929;-76
2021/12/16 04:14:12;;;;;;;81.20;29.15;;;7.40;99.90;;;;;;4936379;29;20110;-77
2021/12/16 04:16:48;;;;;;;78.78;26.70;;;7.40;99.90;;;;;;4971472;28;20091;-75
2021/12/16 04:19:18;;;;;;;83.90;28.85;;;7.40;99.90;;;;;;4972688;28;20555;-75
2021/12/16 04:21:51;;;;;;;67.32;25.98;;;7.50;99.90;;;;;;4938799;28;20568;-75
2021/12/16 04:24:17;;;;;;;78.95;27.23;;;7.40;99.90;;;;;;4955662;28;20046;-77
2021/12/16 04:26:45;;;;;;;78.15;26.75;;;7.40;99.90;;;;;;4955566;28;20066;-75
2021/12/16 04:29:12;;;;;;;78.32;25.33;;;7.40;99.90;;;;;;4972530;28;20047;-75
2021/12/16 04:31:39;;;;;;;81.45;27.90;;;7.40;99.90;;;;;;4955641;28;20097;-75
2021/12/16 04:34:06;;;;;;;87.35;26.85;;;7.30;99.90;;;;;;4955855;28;20055;-77
2021/12/16 04:36:34;;;;;;;95.03;29.40;;;7.40;99.90;;;;;;4970529;28;20113;-77
2021/12/16 04:39:01;;;;;;;84.65;28.13;;;7.30;99.90;;;;;;4949090;29;20047;-75
2021/12/16 04:41:27;;;;;;;88.72;28.60;;;7.40;99.90;;;;;;4947889;28;20118;-77
2021/12/16 04:43:55;;;;;;;85.55;29.17;;;7.40;99.90;;;;;;4972970;28;20141;-75
2021/12/16 04:46:26;;;;;;;97.30;30.60;;;7.40;99.90;;;;;;4971715;28;20050;-75
2021/12/16 04:48:55;;;;;;;75.53;25.13;;;7.50;99.90;;;;;;4955605;28;20105;-75
2021/12/16 04:51:23;;;;;;;93.70;28.95;;;7.40;99.90;;;;;;4938210;28;20065;-75
2021/12/16 04:53:48;;;;;;;81.68;28.73;;;7.40;99.90;;;;;;4972203;28;20074;-75
2021/12/16 04:56:16;;;;;;;70.68;25.35;;;7.40;99.90;;;;;;4938465;28;20488;-74
2021/12/16 04:58:45;;;;;;;85.03;27.38;;;7.40;99.90;;;;;;4954800;28;20058;-78
2021/12/16 05:01:10;;;;;;;79.40;27.13;;;7.40;99.90;;;;;;4936148;29;20412;-78
2021/12/16 05:03:36;;;;;;;79.00;25.83;;;7.50;99.90;;;;;;4951419;28;20137;-75
2021/12/16 05:06:04;;;;;;;76.90;26.80;;;7.50;99.90;;;;;;4954239;28;20054;-78
2021/12/16 05:08:30;;;;;;;79.82;26.58;;;7.50;99.90;;;;;;4954339;28;20047;-77
2021/12/16 05:10:58;;;;;;;95.32;30.75;;;7.50;99.90;;;;;;4954197;28;20129;-76
2021/12/16 05:13:27;;;;;;;77.82;28.63;;;7.50;99.90;;;;;;4971757;28;20046;-75
2021/12/16 05:15:54;;;;;;;85.00;28.13;;;7.50;99.90;;;;;;4972017;28;20047;-75
2021/12/16 05:18:30;;;;;;;80.95;28.40;;;7.50;99.90;;;;;;4954426;28;20129;-76
2021/12/16 05:20:56;;;;;;;84.45;28.83;;;7.50;99.90;;;;;;4954196;28;20062;-76
2021/12/16 05:28:36;;;;;;;79.47;27.67;;;7.50;99.90;;;;;;4954530;28;20051;-75
2021/12/16 05:31:02;;;;;;;78.45;26.95;;;7.50;99.90;;;;;;4971783;28;20377;-75
2021/12/16 05:33:28;;;;;;;88.38;29.95;;;7.50;99.90;;;;;;4953897;28;20060;-76
2021/12/16 05:35:55;;;;;;;81.03;29.45;;;7.50;99.90;;;;;;4953943;28;20043;-79
2021/12/16 05:38:22;;;;;;;82.63;28.52;;;7.50;99.90;;;;;;4970511;28;20050;-75
2021/12/16 05:40:48;;;;;;;86.32;28.77;;;7.50;99.90;;;;;;4954115;28;20142;-75
2021/12/16 05:43:16;;;;;;;84.22;28.65;;;7.50;99.90;;;;;;4971300;28;20086;-77
2021/12/16 05:45:44;;;;;;;89.55;30.58;;;7.50;99.90;;;;;;4954432;28;20035;-77
2021/12/16 05:48:15;;;;;;;87.00;28.50;;;7.50;99.90;;;;;;4970882;28;20165;-81
2021/12/16 05:50:43;;;;;;;91.88;30.13;;;7.50;99.90;;;;;;4971186;28;20544;-76
2021/12/16 05:53:13;;;;;;;83.20;30.25;;;7.50;99.90;;;;;;4952780;28;20058;-75
2021/12/16 05:55:39;;;;;;;83.82;28.95;;;7.50;99.90;;;;;;4970513;28;20207;-76
2021/12/16 05:58:07;;;;;;;90.20;30.58;;;7.40;99.90;;;;;;4971477;28;20130;-76
2021/12/16 06:00:40;;;;;;;86.90;29.85;;;7.50;99.90;;;;;;4970490;28;20051;-75
2021/12/16 06:03:06;;;;;;;84.00;28.75;;;7.50;99.90;;;;;;4971087;28;20465;-76
2021/12/16 06:05:32;;;;;;;;;;;7.50;99.90;;;;;;4971125;28;20057;-75
2021/12/16 06:07:58;;;;;;;85.57;29.40;;;7.50;99.90;;;;;;4952488;28;19926;-76
2021/12/16 06:13:09;;;;;;;89.65;31.17;;;7.50;99.90;;;;;;4953912;28;20094;-76
2021/12/16 06:26:39;;;;;;;86.13;29.40;;;7.50;99.90;;;;;;4950243;29;20607;-75
2021/12/16 06:29:05;;;;;;;73.10;27.38;;;7.50;99.90;;;;;;4934777;29;20055;-75
2021/12/16 06:31:31;;;;;;;73.50;26.15;;;7.50;99.90;;;;;;4933315;29;20051;-78
2021/12/16 06:33:57;;;;;;;73.18;28.23;;;7.50;99.90;;;;;;4959616;28;20480;-75
2021/12/16 06:36:23;;;;;;;74.78;27.30;;;7.50;99.90;;;;;;4968460;28;20057;-75
2021/12/16 06:38:49;;;;;;;76.75;28.80;;;7.50;99.90;;;;;;4953338;28;20051;-76
2021/12/16 06:41:16;;;;;;;84.78;29.58;;;7.50;99.90;;;;;;4952112;28;20113;-80
2021/12/16 06:43:43;;;;;;;82.13;28.38;;;7.50;99.90;;;;;;4970646;28;20050;-75
2021/12/16 06:46:14;;;;;;;77.78;28.38;;;7.50;99.90;;;;;;4952512;28;20047;-75
2021/12/16 06:48:42;;;;;;;81.18;30.02;;;7.50;99.90;;;;;;4970155;28;20126;-76
2021/12/16 06:51:13;;;;;;;73.15;27.33;;;7.60;99.90;;;;;;4970837;28;20061;-77
2021/12/16 06:54:00;;;;;;;78.15;28.67;;;7.50;99.90;;;;;;4971320;28;20053;-75
2021/12/16 06:56:34;;;;;;;77.28;28.92;;;7.50;99.90;;;;;;4965991;28;20055;-76
2021/12/16 06:59:22;;;;;;;78.18;26.65;;;7.50;99.90;;;;;;4953227;28;20416;-76
2021/12/16 07:02:03;;;;;;;80.43;27.88;;;7.50;99.90;;;;;;4953910;28;20560;-76
2021/12/16 07:04:29;;;;;;;77.75;28.30;;;7.50;99.90;;;;;;4940227;28;20556;-74
2021/12/16 07:06:55;;;;;;;73.72;27.45;;;7.50;99.90;;;;;;4953248;28;20494;-74
2021/12/16 07:09:21;;;;;;;84.90;28.55;;;7.50;99.90;;;;;;4971330;28;20046;-73
2021/12/16 07:11:52;;;;;;;82.90;28.80;;;7.50;99.90;;;;;;4953802;28;20094;-74
2021/12/16 07:14:23;;;;;;;83.47;28.45;;;7.50;99.90;;;;;;4954545;28;20133;-80
2021/12/16 07:16:52;;;;;;;77.57;27.80;;;7.50;99.90;;;;;;4970899;28;20129;-74
2021/12/16 07:19:18;;;;;;;80.63;28.02;;;7.50;99.90;;;;;;4971106;28;20054;-80
2021/12/16 07:21:45;;;;;;;71.55;25.88;;;7.80;99.90;;;;;;4970263;28;20051;-73
2021/12/16 07:24:18;;;;;;;82.95;29.02;;;7.40;99.90;;;;;;4971778;28;20046;-74
2021/12/16 07:26:44;;;;;;;80.18;29.48;;;7.40;99.90;;;;;;4970964;28;20496;-76
2021/12/16 07:29:10;;;;;;;78.72;28.88;;;7.40;99.90;;;;;;4954459;28;20089;-76
2021/12/16 07:31:38;;;;;;;84.72;28.58;;;7.40;99.90;;;;;;4952017;28;20134;-76
2021/12/16 07:34:06;;;;;;;93.57;29.20;;;7.40;99.90;;;;;;4954358;28;20058;-77
2021/12/16 07:36:33;;;;;;;77.63;25.98;;;7.40;99.90;;;;;;4944466;28;20078;-76
2021/12/16 07:39:00;;;;;;;77.40;26.10;;;7.40;99.90;;;;;;4927215;28;20054;-76
2021/12/16 07:41:32;;;;;;;83.65;28.90;;;7.30;99.90;;;;;;4940448;29;20142;-77
2021/12/16 07:44:20;;;;;;;74.32;26.83;;;7.30;99.90;;;;;;4935363;29;20062;-75
2021/12/16 07:46:49;;;;;;;78.18;27.42;;;7.20;99.90;;;;;;4934423;29;20051;-72
2021/12/16 07:49:21;;;;;;;77.32;26.35;;;7.20;99.90;;;;;;4935249;29;20102;-73
2021/12/16 07:51:47;;;;;;;76.50;27.10;;;7.20;99.90;;;;;;4960149;28;20112;-73
2021/12/16 07:54:15;;;;;;;76.55;27.20;;;7.10;99.90;;;;;;4938308;28;20113;-73
2021/12/16 07:56:42;;;;;;;82.43;27.75;;;7.00;99.90;;;;;;4969768;28;20050;-74
2021/12/16 07:59:08;;;;;;;90.32;29.38;;;7.10;99.90;;;;;;4971438;28;20062;-73
2021/12/16 08:01:38;;;;;;;;;;;6.90;99.90;;;;;;4950637;29;20059;-73
2021/12/16 08:04:05;;;;;;;93.05;29.60;;;6.90;99.90;;;;;;4951832;29;20312;-73
2021/12/16 08:06:32;;;;;;;90.28;28.33;;;6.80;99.90;;;;;;4932932;29;20456;-77
2021/12/16 08:09:02;;;;;;;99.18;28.75;;;6.80;99.90;;;;;;4965600;28;20055;-74
2021/12/16 08:11:31;;;;;;;85.65;28.60;;;6.70;99.90;;;;;;4952120;28;20058;-75
2021/12/16 08:13:57;;;;;;;84.47;28.98;;;6.70;99.90;;;;;;4960529;28;20504;-75
2021/12/16 08:16:23;;;;;;;86.78;28.98;;;6.60;99.90;;;;;;4973370;28;20042;-79
2021/12/16 08:18:50;;;;;;;110.82;31.30;;;6.60;99.90;;;;;;4953140;28;20051;-74
2021/12/16 08:21:20;;;;;;;94.57;31.17;;;6.60;99.90;;;;;;4955863;28;20097;-75
2021/12/16 08:23:46;;;;;;;102.22;31.77;;;6.70;99.90;;;;;;4946587;28;20477;-75
2021/12/16 08:26:15;;;;;;;105.32;32.38;;;6.70;99.90;;;;;;4928244;28;20139;-74
2021/12/16 08:28:43;;;;;;;113.57;32.28;;;6.70;99.90;;;;;;4944784;28;20117;-75
2021/12/16 08:31:10;;;;;;;115.45;33.42;;;6.70;99.90;;;;;;4963325;28;20070;-77
2021/12/16 08:33:38;;;;;;;107.45;32.28;;;6.70;99.90;;;;;;4949284;28;20051;-74
2021/12/16 08:36:06;;;;;;;108.30;33.65;;;6.70;99.90;;;;;;4951833;28;20043;-75
2021/12/16 08:38:33;;;;;;;119.53;33.22;;;6.80;99.90;;;;;;4938223;28;20065;-74
2021/12/16 08:41:05;;;;;;;108.68;33.70;;;6.80;99.90;;;;;;4963830;28;20051;-76
2021/12/16 08:43:31;;;;;;;121.10;34.45;;;7.00;99.90;;;;;;4963061;28;20476;-75
2021/12/16 08:45:57;;;;;;;;;;;6.90;99.90;;;;;;4944722;28;20054;-75
2021/12/16 08:48:26;;;;;;;124.15;36.75;;;7.00;99.90;;;;;;4953680;28;19922;-75
2021/12/16 08:50:52;;;;;;;135.48;37.72;;;7.00;99.90;;;;;;4959430;28;20066;-76
2021/12/16 08:53:21;;;;;;;160.00;39.75;;;7.10;99.90;;;;;;4944859;28;20065;-75
2021/12/16 08:55:49;;;;;;;155.25;39.03;;;7.20;99.90;;;;;;4954926;28;20079;-74
2021/12/16 08:58:15;;;;;;;177.30;41.72;;;7.30;99.90;;;;;;4955777;28;20047;-75
2021/12/16 09:00:49;;;;;;;160.07;37.10;;;7.40;99.90;;;;;;4936568;28;20061;-76
2021/12/16 09:03:15;;;;;;;172.25;37.05;;;7.50;99.90;;;;;;4951780;28;20051;-76
2021/12/16 09:05:41;;;;;;;179.40;38.20;;;7.50;99.90;;;;;;4952079;28;20512;-76
2021/12/16 09:08:07;;;;;;;163.80;35.55;;;7.50;99.90;;;;;;4951884;28;20047;-76
2021/12/16 09:10:36;;;;;;;225.75;41.10;;;7.50;99.90;;;;;;4941306;28;20051;-77
2021/12/16 09:13:07;;;;;;;175.00;34.33;;;7.50;99.90;;;;;;4951676;28;20061;-75
2021/12/16 09:15:38;;;;;;;170.23;33.95;;;7.60;99.90;;;;;;4973174;28;20043;-76
2021/12/16 09:18:08;;;;;;;216.70;39.25;;;7.70;99.90;;;;;;4956011;28;20043;-75
2021/12/16 09:20:34;;;;;;;198.88;37.97;;;7.60;99.90;;;;;;4938442;28;20130;-76
2021/12/16 09:23:01;;;;;;;165.50;33.67;;;7.60;99.90;;;;;;4958783;28;20043;-77
2021/12/16 09:25:27;;;;;;;;;;;7.60;99.90;;;;;;4963306;28;20082;-75
2021/12/16 09:27:53;;;;;;;127.90;27.90;;;7.70;99.90;;;;;;4927830;28;19923;-75
2021/12/16 09:30:21;;;;;;;150.93;30.50;;;7.70;99.90;;;;;;4940890;28;20078;-75
2021/12/16 09:32:51;;;;;;;160.02;31.00;;;7.70;99.90;;;;;;4946755;29;20426;-75
2021/12/16 09:35:18;;;;;;;163.35;33.50;;;7.80;99.90;;;;;;4968938;28;20050;-75
2021/12/16 09:37:44;;;;;;;167.70;36.47;;;7.70;99.90;;;;;;4953505;28;20058;-75
2021/12/16 09:40:18;;;;;;;199.75;35.78;;;7.80;99.90;;;;;;4968980;28;20051;-79
2021/12/16 09:42:45;;;;;;;129.25;30.45;;;7.80;99.90;;;;;;4966675;28;20381;-78
2021/12/16 09:45:13;;;;;;;138.15;32.28;;;7.70;99.90;;;;;;4967212;28;20049;-79
2021/12/16 09:47:40;;;;;;;153.45;33.60;;;7.80;99.90;;;;;;4952072;29;20090;-78
2021/12/16 09:50:08;;;;;;;173.27;33.75;;;7.80;99.90;;;;;;4951589;28;20576;-76
2021/12/16 09:52:34;;;;;;;132.55;30.75;;;7.80;99.90;;;;;;4953666;28;20058;-82
2021/12/16 09:55:01;;;;;;;115.93;29.63;;;7.80;99.90;;;;;;4972798;28;20177;-78
2021/12/16 09:57:28;;;;;;;114.18;30.17;;;7.80;99.90;;;;;;4955174;28;20060;-76
2021/12/16 09:59:55;;;;;;;100.03;28.45;;;7.80;99.90;;;;;;4954969;28;20043;-76
2021/12/16 10:02:21;;;;;;;131.98;32.15;;;7.90;99.90;;;;;;4972383;28;20046;-78
2021/12/16 10:04:48;;;;;;;113.10;30.13;;;7.90;99.90;;;;;;4947226;28;20286;-76
2021/12/16 10:07:21;;;;;;;;;;;7.90;99.90;;;;;;4949121;28;20062;-76
2021/12/16 10:09:50;;;;;;;103.47;26.77;;;7.90;99.90;;;;;;4971643;28;19980;-76
2021/12/16 10:12:20;;;;;;;119.75;31.10;;;8.00;99.90;;;;;;4955024;28;20051;-77
2021/12/16 10:17:32;;;;;;;114.60;29.17;;;8.00;99.90;;;;;;4954767;28;20047;-76
2021/12/16 10:20:14;;;;;;;108.00;30.05;;;8.00;99.90;;;;;;4954802;28;20058;-77
2021/12/16 10:22:42;;;;;;;126.20;29.17;;;8.00;99.90;;;;;;4970417;28;20086;-76
2021/12/16 10:25:26;;;;;;;117.55;28.80;;;8.00;99.90;;;;;;4955280;28;20093;-82
2021/12/16 10:28:08;;;;;;;123.03;28.65;;;8.00;99.90;;;;;;4945233;28;20086;-81
2021/12/16 10:30:58;;;;;;;120.53;28.20;;;8.00;99.90;;;;;;4960198;28;20053;-84
2021/12/16 10:33:41;;;;;;;140.07;29.25;;;8.00;99.90;;;;;;4971149;28;20050;-77
2021/12/16 10:36:15;;;;;;;149.60;29.02;;;8.00;99.90;;;;;;4953003;28;20508;-76
2021/12/16 10:39:01;;;;;;;156.80;29.50;;;8.10;99.90;;;;;;4948057;28;20047;-77
2021/12/16 10:41:40;;;;;;;104.05;26.48;;;8.10;99.90;;;;;;4968948;28;20054;-78
2021/12/16 10:44:08;;;;;;;91.57;24.92;;;8.10;99.90;;;;;;4971690;28;20122;-77
2021/12/16 10:46:41;;;;;;;139.45;28.17;;;8.10;99.90;;;;;;4955258;28;20114;-77
2021/12/16 10:49:14;;;;;;;107.20;25.77;;;8.10;99.90;;;;;;4947521;28;20097;-77
2021/12/16 10:51:54;;;;;;;99.75;25.45;;;8.10;99.90;;;;;;4933551;28;20124;-77
2021/12/16 10:54:22;;;;;;;117.13;28.05;;;8.30;99.90;;;;;;4966280;28;20050;-77
2021/12/16 10:56:58;;;;;;;117.53;27.65;;;8.10;99.90;;;;;;4955651;28;20082;-77
2021/12/16 10:59:26;;;;;;;107.50;26.67;;;8.10;99.90;;;;;;4934965;28;20496;-77
2021/12/16 11:02:04;;;;;;;111.22;27.35;;;8.10;99.90;;;;;;4950448;28;20142;-76
2021/12/16 11:04:45;;;;;;;108.22;27.65;;;8.10;99.90;;;;;;4935486;29;20381;-77
2021/12/16 11:07:31;;;;;;;121.15;28.27;;;8.10;99.90;;;;;;4934154;29;20473;-77
2021/12/16 11:09:57;;;;;;;132.05;28.90;;;8.10;99.90;;;;;;4961777;28;20274;-78
2021/12/16 11:12:38;;;;;;;127.38;30.40;;;8.10;99.90;;;;;;4945350;28;20496;-77
2021/12/16 11:15:12;;;;;;;116.13;27.65;;;8.10;99.90;;;;;;4935098;29;20078;-76
2021/12/16 11:17:50;;;;;;;107.65;25.90;;;8.20;99.90;;;;;;4934983;29;20567;-82
2021/12/16 11:20:31;;;;;;;111.60;26.60;;;8.20;99.90;;;;;;4952218;29;20121;-77
2021/12/16 11:23:00;;;;;;;112.90;27.02;;;8.20;99.90;;;;;;4940031;28;20059;-77
2021/12/16 11:25:38;;;;;;;117.13;25.30;;;8.20;99.90;;;;;;4954157;28;20104;-76
2021/12/16 11:28:19;;;;;;;144.38;29.48;;;8.20;99.90;;;;;;4938360;28;20508;-76
2021/12/16 11:30:50;;;;;;;109.18;26.63;;;8.20;99.90;;;;;;4947628;28;20145;-77
2021/12/16 11:33:39;;;;;;;113.88;27.55;;;8.20;99.90;;;;;;4938746;28;20540;-78
2021/12/16 11:36:15;;;;;;;110.72;27.35;;;8.10;99.90;;;;;;4959600;28;20125;-75
2021/12/16 11:38:52;;;;;;;111.37;28.43;;;8.20;99.90;;;;;;4959742;28;20046;-77
2021/12/16 11:41:49;;;;;;;98.47;27.42;;;8.20;99.90;;;;;;4947404;28;20062;-76
2021/12/16 11:44:24;;;;;;;90.25;26.50;;;8.20;99.90;;;;;;4936923;29;20063;-76
2021/12/16 11:46:54;;;;;;;94.43;28.40;;;8.20;99.90;;;;;;4950586;28;20067;-74
2021/12/16 11:49:22;;;;;;;85.97;25.70;;;8.20;99.90;;;;;;4941246;29;20489;-74
2021/12/16 11:52:03;;;;;;;89.70;26.85;;;8.20;99.90;;;;;;4936726;29;20121;-74
2021/12/16 11:54:29;;;;;;;95.32;27.08;;;8.30;99.90;;;;;;4962484;28;20142;-76
2021/12/16 11:57:04;;;;;;;95.50;26.05;;;8.30;99.90;;;;;;4949868;28;20122;-74
2021/12/16 11:59:40;;;;;;;90.40;26.63;;;8.40;99.90;;;;;;4952492;28;20098;-76
2021/12/16 12:02:17;;;;;;;93.57;27.20;;;8.30;99.90;;;;;;4946817;28;20047;-76
2021/12/16 12:04:43;;;;;;;92.72;25.95;;;8.40;99.90;;;;;;4974289;28;20177;-76
2021/12/16 12:07:14;;;;;;;97.30;26.75;;;8.40;99.90;;;;;;4955739;28;20137;-77
2021/12/16 12:09:44;;;;;;;79.25;25.00;;;8.40;99.90;;;;;;4957100;28;20546;-77
2021/12/16 12:12:11;;;;;;;85.60;25.25;;;8.40;99.90;;;;;;4974356;28;20062;-76
2021/12/16 12:14:38;;;;;;;76.90;23.33;;;8.40;99.90;;;;;;4945090;29;20043;-76
2021/12/16 12:17:11;;;;;;;66.82;21.58;;;8.40;99.90;;;;;;4954161;29;20597;-77
2021/12/16 12:19:44;;;;;;;66.45;22.17;;;8.40;99.90;;;;;;4965152;28;20706;-76
2021/12/16 12:22:10;;;;;;;69.78;22.45;;;8.40;99.90;;;;;;4955666;28;20050;-76
2021/12/16 12:24:46;;;;;;;85.22;24.83;;;8.50;99.90;;;;;;4953451;28;20062;-78
2021/12/16 12:27:19;;;;;;;85.53;24.25;;;8.50;99.90;;;;;;4956083;28;20512;-78
2021/12/16 12:29:54;;;;;;;70.85;21.80;;;8.50;99.90;;;;;;4955528;28;20102;-81
2021/12/16 12:32:25;;;;;;;81.30;22.90;;;8.50;99.90;;;;;;4945790;28;20086;-78
2021/12/16 12:35:07;;;;;;;71.13;21.35;;;8.40;99.90;;;;;;4921307;28;20055;-78
2021/12/16 12:37:36;;;;;;;69.22;20.40;;;8.50;99.90;;;;;;4935983;28;20086;-77
2021/12/16 12:40:12;;;;;;;79.65;22.48;;;8.40;99.90;;;;;;4937380;29;20059;-78
2021/12/16 12:42:38;;;;;;;74.15;20.55;;;8.50;99.90;;;;;;4936742;29;20508;-78
2021/12/16 12:45:08;;;;;;;70.03;22.33;;;8.50;99.90;;;;;;4937476;29;20062;-78
2021/12/16 12:47:35;;;;;;;67.10;20.90;;;8.40;99.90;;;;;;4937440;29;20058;-78
2021/12/16 12:50:13;;;;;;;77.78;21.85;;;8.50;99.90;;;;;;4956425;28;20182;-77
2021/12/16 12:52:39;;;;;;;72.32;20.50;;;8.50;99.90;;;;;;4955260;28;20047;-78
2021/12/16 12:55:13;;;;;;;64.25;20.05;;;8.50;99.90;;;;;;4956311;28;20925;-78
2021/12/16 12:57:42;;;;;;;67.88;19.73;;;8.50;99.90;;;;;;4956078;28;20587;-79
2021/12/16 13:00:26;;;;;;;68.07;20.55;;;8.50;99.90;;;;;;4955334;28;20071;-79
2021/12/16 13:03:08;;;;;;;70.53;21.67;;;8.50;99.90;;;;;;4955983;28;20516;-79
2021/12/16 13:05:34;;;;;;;71.93;20.77;;;8.50;99.90;;;;;;4955768;28;20094;-78
2021/12/16 13:08:06;;;;;;;64.90;19.13;;;8.50;99.90;;;;;;4971222;28;20496;-79
2021/12/16 13:10:45;;;;;;;62.67;21.02;;;8.60;99.90;;;;;;4955322;28;20070;-78
2021/12/16 13:13:30;;;;;;;58.75;19.15;;;8.60;99.90;;;;;;4956600;28;20137;-77
2021/12/16 13:32:43;;;;;;;66.80;20.30;;;8.50;99.90;;;;;;4936685;29;20137;-78
2021/12/16 13:35:22;;;;;;;58.03;19.65;;;8.60;99.90;;;;;;4920023;29;20505;-78
2021/12/16 13:37:51;;;;;;;58.53;17.80;;;8.50;99.90;;;;;;4952799;29;20086;-77
2021/12/16 13:40:19;;;;;;;58.85;18.77;;;8.50;99.90;;;;;;4935757;29;20050;-77
2021/12/16 13:42:54;;;;;;;66.57;18.13;;;8.50;99.90;;;;;;4936316;29;20082;-76
2021/12/16 13:45:28;;;;;;;66.32;17.38;;;8.50;99.90;;;;;;4925383;28;20134;-77
2021/12/16 13:48:27;;;;;;;58.15;15.70;;;8.50;99.90;;;;;;4947810;29;20051;-79
2021/12/16 14:02:00;;;;;;;70.47;19.92;;;8.50;99.90;;;;;;4955418;28;20408;-77
2021/12/16 14:07:26;;;;;;;76.55;21.25;;;8.40;99.90;;;;;;4954221;28;20070;-79
2021/12/16 14:10:17;;;;;;;67.82;20.08;;;8.40;99.90;;;;;;4954868;28;20113;-78
2021/12/16 14:16:16;;;;;;;62.35;20.50;;;8.40;99.90;;;;;;4956248;28;20113;-79
2021/12/16 14:41:14;;;;;;;54.33;17.75;;;8.30;99.90;;;;;;4955102;28;20508;-86
2021/12/16 14:43:54;;;;;;;44.58;16.35;;;8.10;99.90;;;;;;4942683;28;20055;-79
2021/12/16 14:46:26;;;;;;;46.38;16.20;;;8.30;99.90;;;;;;4939658;28;20082;-79
2021/12/16 14:48:52;;;;;;;44.63;15.07;;;8.30;99.90;;;;;;4955578;28;20511;-79
2021/12/16 14:51:18;;;;;;;41.90;14.85;;;8.30;99.90;;;;;;4954656;28;20051;-79
2021/12/16 14:53:47;;;;;;;48.28;15.63;;;8.30;99.90;;;;;;4939463;28;20077;-79
2021/12/16 14:56:15;;;;;;;54.22;16.23;;;8.30;99.90;;;;;;4939001;28;20447;-78
2021/12/16 14:58:44;;;;;;;52.53;16.38;;;8.30;99.90;;;;;;4955864;28;20086;-80
2021/12/16 15:01:19;;;;;;;48.90;16.17;;;8.30;99.90;;;;;;4939084;28;20065;-81
2021/12/16 15:03:47;;;;;;;55.05;16.30;;;8.30;99.90;;;;;;4939882;28;20055;-79
2021/12/16 15:06:19;;;;;;;57.50;17.45;;;8.40;99.90;;;;;;4953641;28;20154;-78
2021/12/16 15:08:53;;;;;;;49.15;17.15;;;8.40;99.90;;;;;;4954147;28;20137;-76
2021/12/16 15:11:33;;;;;;;66.18;17.67;;;8.30;99.90;;;;;;4947051;28;20112;-77
2021/12/16 15:14:04;;;;;;;96.25;21.63;;;8.30;99.90;;;;;;4949210;28;20409;-76
2021/12/16 15:44:11;;;;;;;187.40;26.23;;;8.10;99.90;;;;;;4957784;28;20054;-74
2021/12/16 15:46:39;;;;;;;173.60;25.70;;;8.10;99.90;;;;;;4957922;28;20055;-73
2021/12/16 15:49:05;;;;;;;211.98;28.63;;;8.20;99.90;;;;;;4974537;28;20129;-73
2021/12/16 15:51:31;;;;;;;282.67;33.13;;;8.20;99.90;;;;;;4973410;28;20118;-79
2021/12/16 15:53:59;;;;;;;219.77;28.58;;;8.10;99.90;;;;;;4974877;28;20150;-81
2021/12/16 15:56:33;;;;;;;271.65;31.50;;;8.10;99.90;;;;;;4957776;28;20129;-74
2021/12/16 15:59:04;;;;;;;239.55;28.88;;;8.10;99.90;;;;;;4957460;28;20054;-80
2021/12/16 16:01:39;;;;;;;240.43;30.20;;;8.10;99.90;;;;;;4974794;28;20051;-75
2021/12/16 16:04:23;;;;;;;246.95;28.70;;;8.10;99.90;;;;;;4974241;28;20134;-75
2021/12/16 16:06:57;;;;;;;218.07;30.75;;;8.10;99.90;;;;;;4973274;28;20082;-76
2021/12/16 16:09:29;;;;;;;271.00;32.65;;;8.20;99.90;;;;;;4974461;28;20055;-74
2021/12/16 16:11:56;;;;;;;203.27;29.20;;;8.00;99.90;;;;;;4974047;28;20073;-74
2021/12/16 16:14:24;;;;;;;255.35;32.95;;;8.00;99.90;;;;;;4954796;28;20113;-75
2021/12/16 16:16:53;;;;;;;198.27;27.58;;;8.00;99.90;;;;;;4974339;28;20053;-74
2021/12/16 16:19:28;;;;;;;299.95;33.65;;;8.00;99.90;;;;;;4940792;28;20117;-75
2021/12/16 16:21:56;;;;;;;305.77;34.20;;;8.00;99.90;;;;;;4972391;28;20047;-75
2021/12/16 16:24:30;;;;;;;309.13;33.58;;;8.00;99.90;;;;;;4956660;28;20051;-74
2021/12/16 16:26:58;;;;;;;271.48;30.63;;;8.00;99.90;;;;;;4957856;28;20051;-75
2021/12/16 16:29:26;;;;;;;263.98;32.03;;;8.00;99.90;;;;;;4937753;29;20069;-74
2021/12/16 16:31:53;;;;;;;227.00;32.47;;;8.00;99.90;;;;;;4937781;29;20645;-75
2021/12/16 16:34:23;;;;;;;315.05;34.75;;;7.90;99.90;;;;;;4966663;28;20090;-74
2021/12/16 16:36:53;;;;;;;338.63;35.95;;;7.90;99.90;;;;;;4972702;28;20408;-77
2021/12/16 16:39:23;;;;;;;295.45;32.60;;;7.90;99.90;;;;;;4939365;28;20059;-74
2021/12/16 16:41:52;;;;;;;295.67;33.08;;;7.90;99.90;;;;;;4947152;29;20436;-74
2021/12/16 16:44:21;;;;;;;326.60;31.92;;;7.80;99.90;;;;;;4944283;28;20101;-74